createdAt,value
2017-11-25T00:00:05.974Z,13.4
2017-11-25T00:15:04.840Z,13.5
2017-11-25T00:30:05.511Z,13.4
2017-11-25T00:45:24.021Z,13.2
2017-11-25T01:00:04.996Z,13
2017-11-25T01:15:04.513Z,13
2017-11-25T01:30:04.655Z,12.9
2017-11-25T01:45:05.023Z,13
2017-11-25T02:00:04.543Z,12.7
2017-11-25T02:15:04.928Z,12.6
2017-11-25T02:30:05.934Z,12.4
2017-11-25T02:45:06.184Z,12.6
2017-11-25T03:00:06.115Z,12.3
2017-11-25T03:15:04.701Z,12.1
2017-11-25T03:30:05.122Z,12.2
2017-11-25T03:45:04.893Z,12.3
2017-11-25T04:00:04.662Z,12.1
2017-11-25T04:15:05.383Z,12.3
2017-11-25T04:30:05.466Z,12.3
2017-11-25T04:45:04.360Z,12.3
2017-11-25T05:00:05.857Z,12.3
2017-11-25T05:15:07.975Z,12.3
2017-11-25T05:30:06.032Z,12.2
2017-11-25T05:45:04.693Z,12.1
2017-11-25T06:00:06.336Z,12.3
2017-11-25T06:15:04.340Z,12
2017-11-25T06:30:06.148Z,12.3
2017-11-25T06:45:04.636Z,12.5
2017-11-25T07:00:07.736Z,12
2017-11-25T07:15:05.199Z,11.6
2017-11-25T07:30:04.892Z,11.2
2017-11-25T07:45:10.514Z,11.2
2017-11-25T08:00:07.594Z,10.8
2017-11-25T08:15:04.997Z,10.7
2017-11-25T08:30:05.409Z,10.4
2017-11-25T08:45:04.935Z,10.1
2017-11-25T09:00:04.390Z,10
2017-11-25T09:15:07.915Z,9.7
2017-11-25T09:30:05.793Z,10
2017-11-25T09:45:05.145Z,10.3
2017-11-25T10:00:04.651Z,10.3
2017-11-25T10:15:05.340Z,10.4
2017-11-25T10:30:05.107Z,10.4
2017-11-25T10:45:05.318Z,10
2017-11-25T11:00:04.665Z,9.7
2017-11-25T11:15:06.220Z,9.8
2017-11-25T11:30:04.372Z,9.6
2017-11-25T11:45:04.269Z,9.5
2017-11-25T12:00:04.744Z,9.3
2017-11-25T12:15:04.627Z,9.4
2017-11-25T12:30:04.261Z,9
2017-11-25T12:45:05.125Z,9.1
2017-11-25T13:00:20.834Z,9.6
2017-11-25T13:15:07.887Z,9.6
2017-11-25T13:30:05.709Z,9.7
2017-11-25T13:45:04.749Z,9.5
2017-11-25T14:00:05.165Z,9.9
2017-11-25T14:15:07.624Z,10
2017-11-25T14:30:05.414Z,9.9
2017-11-25T14:45:05.320Z,10.1
2017-11-25T15:00:07.879Z,10
2017-11-25T15:15:04.263Z,9.8
2017-11-25T15:30:07.892Z,9.9
2017-11-25T15:45:04.773Z,10.1
2017-11-25T16:00:04.322Z,10.1
2017-11-25T16:15:04.197Z,10.1
2017-11-25T16:30:04.363Z,9.9
2017-11-25T16:45:07.911Z,8.9
2017-11-25T17:00:04.827Z,8.9
2017-11-25T17:15:05.712Z,8.5
2017-11-25T17:30:04.365Z,8.7
2017-11-25T17:45:04.350Z,8.7
2017-11-25T18:00:05.858Z,8.6
2017-11-25T18:15:04.751Z,8.9
2017-11-25T18:30:05.890Z,8.8
2017-11-25T18:45:05.327Z,8.9
2017-11-25T19:00:08.042Z,8.7
2017-11-25T19:15:04.434Z,8.6
2017-11-25T19:30:08.009Z,8.8
2017-11-25T19:45:04.392Z,8.9
2017-11-25T20:00:04.770Z,8.9
2017-11-25T20:15:05.701Z,8.9
2017-11-25T20:30:04.377Z,8.7
2017-11-25T20:45:04.262Z,8.2
2017-11-25T21:00:04.794Z,7.9
2017-11-25T21:15:05.146Z,8.3
2017-11-25T21:30:04.294Z,8.4
2017-11-25T21:45:04.260Z,8.1
2017-11-25T22:00:05.717Z,7.8
2017-11-25T22:15:11.799Z,8
2017-11-25T22:30:04.503Z,7.7
2017-11-25T22:45:06.024Z,7.3
2017-11-25T23:00:06.565Z,7.2
2017-11-25T23:15:06.046Z,7
2017-11-25T23:30:05.858Z,7
2017-11-25T23:45:05.801Z,6.5
